Time;durP1;ratioP1;P1;durP2;ratioP2;P2;SDS_P1;SDS_P2;PMS_P1;PMS_P2;Temp;Humidity;BMP_temperature;BMP_pressure;BME280_temperature;BME280_humidity;BME280_pressure;Samples;Min_cycle;Max_cycle;Signal;HPM_P1;HPM_P2
2022/03/26 00:00:17;;;;;;;17.92;9.52;;;;;;;9.11;65.90;101441.28;5026656;28;20053;-59
2022/03/26 00:02:44;;;;;;;19.15;8.32;;;;;;;9.09;65.66;101437.81;5023040;28;20048;-59
2022/03/26 00:05:11;;;;;;;17.70;9.68;;;;;;;9.08;65.52;101430.91;5022511;28;20045;-59
2022/03/26 00:07:38;;;;;;;20.67;9.07;;;;;;;9.06;65.62;101437.78;5026087;28;20064;-59
2022/03/26 00:10:05;;;;;;;17.83;9.60;;;;;;;9.05;66.24;101436.94;5026893;28;20049;-59
2022/03/26 00:12:33;;;;;;;20.05;9.52;;;;;;;9.03;65.99;101433.47;5029265;28;20060;-59
2022/03/26 00:15:00;;;;;;;20.80;9.30;;;;;;;9.01;66.77;101423.97;5029685;28;20048;-59
2022/03/26 00:17:27;;;;;;;21.50;9.60;;;;;;;9.02;66.85;101434.31;5025202;28;20057;-59
2022/03/26 00:19:54;;;;;;;18.63;8.57;;;;;;;9.01;67.32;101430.00;5023851;28;20499;-61
2022/03/26 00:22:20;;;;;;;15.27;8.10;;;;;;;9.03;67.39;101427.44;5026666;28;20046;-60
2022/03/26 00:24:47;;;;;;;23.05;9.80;;;;;;;9.01;67.56;101413.63;5024244;28;20133;-59
2022/03/26 00:27:14;;;;;;;22.02;9.80;;;;;;;9.03;67.07;101424.84;5029409;28;20041;-59
2022/03/26 00:29:42;;;;;;;20.98;9.95;;;;;;;9.03;67.88;101422.25;5024563;28;20126;-59
2022/03/26 00:32:09;;;;;;;23.30;9.07;;;;;;;9.05;68.22;101417.97;5022418;28;20053;-59
2022/03/26 00:34:36;;;;;;;19.10;9.70;;;;;;;9.07;68.22;101408.50;5023018;28;20049;-59
2022/03/26 00:37:03;;;;;;;20.13;9.30;;;;;;;9.07;67.88;101398.16;5026012;28;20135;-60
2022/03/26 00:39:29;;;;;;;19.85;9.25;;;;;;;9.07;67.62;101385.22;5025738;28;20045;-60
2022/03/26 00:41:56;;;;;;;22.00;10.13;;;;;;;9.09;67.81;101386.09;5030883;28;20057;-59
2022/03/26 00:44:22;;;;;;;21.02;10.02;;;;;;;9.10;67.75;101377.47;5026793;28;20080;-59
2022/03/26 00:46:50;;;;;;;22.13;10.52;;;;;;;9.10;67.71;101372.31;5025465;28;20505;-60
2022/03/26 00:49:18;;;;;;;20.38;9.85;;;;;;;9.09;68.12;101360.22;5023738;28;20053;-60
2022/03/26 00:51:45;;;;;;;19.00;9.48;;;;;;;9.11;67.72;101368.88;5027445;28;20057;-59
2022/03/26 00:54:12;;;;;;;19.23;10.18;;;;;;;9.09;68.63;101362.81;5022997;28;20057;-60
2022/03/26 00:56:40;;;;;;;20.60;10.05;;;;;;;9.10;68.21;101372.31;5025008;28;22231;-59
2022/03/26 00:59:07;;;;;;;18.52;9.63;;;;;;;9.10;68.05;101365.41;5024250;28;21580;-59
2022/03/26 01:01:35;;;;;;;20.10;10.23;;;;;;;9.12;67.51;101360.25;5024139;28;20406;-59
2022/03/26 01:04:04;;;;;;;21.25;10.52;;;;;;;9.11;68.29;101363.69;5021694;28;20045;-59
2022/03/26 01:06:30;;;;;;;17.80;8.73;;;;;;;9.11;68.11;101351.63;5025079;28;20052;-61
2022/03/26 01:08:56;;;;;;;16.73;8.90;;;;;;;9.13;67.95;101351.66;5025027;28;20140;-59
2022/03/26 01:11:23;;;;;;;24.00;10.80;;;;;;;9.12;67.92;101344.75;5025801;28;20052;-59
2022/03/26 01:13:53;;;;;;;22.45;10.05;;;;;;;9.10;68.49;101351.63;5024599;28;20045;-59
2022/03/26 01:16:20;;;;;;;18.55;9.50;;;;;;;9.09;68.25;101355.06;5023473;28;20049;-60
2022/03/26 01:18:47;;;;;;;22.08;9.30;;;;;;;9.10;68.32;101362.84;5025840;28;20128;-60
2022/03/26 01:21:15;;;;;;;23.58;10.63;;;;;;;9.10;68.64;101367.13;5023150;28;20503;-59
2022/03/26 01:23:41;;;;;;;20.00;9.57;;;;;;;9.10;68.76;101372.31;5024147;28;20052;-60
2022/03/26 01:26:08;;;;;;;28.08;10.65;;;;;;;9.09;68.59;101368.00;5020969;28;20061;-62
2022/03/26 01:28:34;;;;;;;22.02;10.23;;;;;;;9.08;69.35;101350.75;5025281;28;20046;-59
2022/03/26 01:31:01;;;;;;;28.58;10.52;;;;;;;9.07;69.04;101361.94;5024230;28;20056;-60
2022/03/26 01:33:27;;;;;;;24.30;9.93;;;;;;;9.07;69.68;101356.78;5021907;28;20136;-59
2022/03/26 01:35:54;;;;;;;33.03;10.88;;;;;;;9.05;69.18;101359.34;5026111;28;20041;-60
2022/03/26 01:38:22;;;;;;;26.48;9.90;;;;;;;9.03;69.46;101353.28;5025183;28;20073;-60
2022/03/26 01:40:49;;;;;;;27.10;10.30;;;;;;;9.03;69.55;101349.84;5025373;28;20049;-60
2022/03/26 01:43:16;;;;;;;24.90;10.98;;;;;;;9.01;69.89;101341.22;5025416;28;20091;-59
2022/03/26 01:45:42;;;;;;;24.75;11.25;;;;;;;8.98;70.25;101343.78;5026351;28;20045;-59
2022/03/26 01:48:09;;;;;;;26.65;11.02;;;;;;;8.94;70.51;101349.78;5027954;28;20050;-59
2022/03/26 01:50:35;;;;;;;23.08;10.15;;;;;;;8.93;70.33;101348.91;5024745;28;20514;-60
2022/03/26 01:53:03;;;;;;;30.75;10.43;;;;;;;8.91;70.39;101342.88;5026204;28;20493;-60
2022/03/26 01:55:31;;;;;;;25.60;11.30;;;;;;;8.88;70.89;101336.81;5027004;28;20049;-59
2022/03/26 01:57:57;;;;;;;23.50;11.00;;;;;;;8.85;70.41;101335.94;5021589;28;20712;-59
2022/03/26 02:00:24;;;;;;;24.75;10.45;;;;;;;8.84;71.08;101320.38;5021215;28;20049;-59
2022/03/26 02:02:51;;;;;;;23.20;10.57;;;;;;;8.80;71.02;101324.66;5021116;28;20464;-59
2022/03/26 02:05:19;;;;;;;24.73;10.68;;;;;;;8.78;70.53;101323.78;5023681;28;20546;-60
2022/03/26 02:07:48;;;;;;;23.90;10.80;;;;;;;8.75;70.75;101318.56;5024604;28;20156;-59
2022/03/26 02:10:19;;;;;;;23.58;10.10;;;;;;;8.72;71.21;101313.38;5024261;28;20049;-59
2022/03/26 02:12:47;;;;;;;34.22;11.57;;;;;;;8.67;71.65;101299.56;5022905;28;20607;-60
2022/03/26 02:15:15;;;;;;;25.85;10.75;;;;;;;8.65;71.45;101306.44;5022720;28;20052;-59
2022/03/26 02:17:42;;;;;;;26.42;10.43;;;;;;;8.60;72.05;101297.78;5023462;28;20135;-60
2022/03/26 02:20:12;;;;;;;23.30;10.30;;;;;;;8.59;71.96;101292.59;5020603;28;20071;-59
2022/03/26 02:22:40;;;;;;;24.58;11.43;;;;;;;8.55;72.30;101291.69;5022309;28;20397;-59
2022/03/26 02:25:08;;;;;;;26.50;10.88;;;;;;;8.51;72.91;101295.13;5022832;28;20045;-59
2022/03/26 02:27:35;;;;;;;19.52;9.70;;;;;;;8.51;72.31;101277.03;5022835;28;20049;-59
2022/03/26 02:30:02;;;;;;;25.67;10.07;;;;;;;8.49;72.55;101270.97;5020719;28;20051;-60
2022/03/26 02:32:29;;;;;;;25.80;10.15;;;;;;;8.48;72.88;101253.75;5021186;28;20056;-59
2022/03/26 02:34:57;;;;;;;27.00;11.35;;;;;;;8.46;73.22;101252.88;5026214;28;20065;-59
2022/03/26 02:37:25;;;;;;;27.70;10.27;;;;;;;8.42;73.43;101261.44;5026613;28;20045;-59
2022/03/26 02:39:51;;;;;;;25.23;10.65;;;;;;;8.41;73.57;101262.31;5025002;28;20046;-60
2022/03/26 02:42:18;;;;;;;31.25;11.15;;;;;;;8.41;73.55;101259.72;5025944;28;20046;-60
2022/03/26 02:44:44;;;;;;;21.15;9.88;;;;;;;8.40;73.36;101260.56;5026358;28;20045;-59
2022/03/26 02:47:11;;;;;;;20.20;9.15;;;;;;;8.38;73.84;101260.56;5021976;28;20057;-60
2022/03/26 02:49:38;;;;;;;20.17;9.70;;;;;;;8.36;73.98;101257.09;5023221;28;20422;-59
2022/03/26 02:52:05;;;;;;;22.23;9.95;;;;;;;8.34;73.83;101251.06;5025011;28;20037;-59
2022/03/26 02:54:34;;;;;;;25.38;10.93;;;;;;;8.35;74.15;101265.69;5022966;28;20407;-60
2022/03/26 02:57:00;;;;;;;17.83;9.30;;;;;;;8.35;74.07;101242.44;5022336;28;20057;-59
2022/03/26 02:59:27;;;;;;;23.75;9.18;;;;;;;8.36;73.88;101236.44;5018994;28;20136;-60
2022/03/26 03:01:53;;;;;;;21.50;9.20;;;;;;;8.34;73.57;101219.19;5025172;28;20418;-60
2022/03/26 03:04:20;;;;;;;26.17;9.38;;;;;;;8.35;73.96;101208.00;5020441;28;20068;-59
2022/03/26 03:06:47;;;;;;;20.38;9.00;;;;;;;8.34;74.24;101211.44;5020328;28;20055;-60
2022/03/26 03:09:13;;;;;;;29.08;9.57;;;;;;;8.36;74.49;101200.25;5020992;28;20061;-60
2022/03/26 03:11:41;;;;;;;21.27;9.15;;;;;;;8.35;74.38;101202.84;5022206;28;20371;-60
2022/03/26 03:14:10;;;;;;;23.60;8.68;;;;;;;8.35;74.67;101203.69;5020485;28;20402;-59
2022/03/26 03:16:37;;;;;;;24.80;9.38;;;;;;;8.36;74.66;101205.44;5021454;28;20052;-60
2022/03/26 03:19:03;;;;;;;22.15;8.45;;;;;;;8.36;74.30;101199.41;5022204;28;20077;-59
2022/03/26 03:21:30;;;;;;;18.38;8.02;;;;;;;8.36;73.99;101205.44;5025889;28;20041;-59
2022/03/26 03:23:57;;;;;;;21.88;8.45;;;;;;;8.37;74.59;101202.00;5025651;28;20049;-59
2022/03/26 03:26:23;;;;;;;20.88;9.07;;;;;;;8.35;74.69;101218.34;5021603;28;20184;-59
2022/03/26 03:28:51;;;;;;;18.00;9.18;;;;;;;8.35;74.76;101221.78;5020821;28;20053;-60
2022/03/26 03:31:17;;;;;;;22.67;8.02;;;;;;;8.35;74.67;101213.16;5022790;28;20050;-59
2022/03/26 03:33:44;;;;;;;17.38;8.50;;;;;;;8.32;75.00;101210.50;5019886;28;20419;-59
2022/03/26 03:36:11;;;;;;;16.80;7.85;;;;;;;8.33;74.50;101220.00;5021948;28;20073;-59
2022/03/26 03:38:37;;;;;;;16.80;8.30;;;;;;;8.31;74.82;101221.69;5027933;28;20041;-60
2022/03/26 03:41:04;;;;;;;23.55;9.07;;;;;;;8.28;75.26;101225.09;5025559;28;20486;-59
2022/03/26 03:43:30;;;;;;;20.90;8.70;;;;;;;8.26;75.24;101223.34;5021129;28;20056;-59
2022/03/26 03:45:58;;;;;;;18.77;8.90;;;;;;;8.24;74.80;101226.78;5021826;28;20475;-59
2022/03/26 03:48:25;;;;;;;18.15;9.20;;;;;;;8.26;75.63;101226.81;5020077;28;20049;-59
2022/03/26 03:50:51;;;;;;;20.40;8.07;;;;;;;8.22;75.17;101223.34;5022785;28;20379;-59
2022/03/26 03:53:18;;;;;;;15.98;8.57;;;;;;;8.19;75.14;101225.88;5027853;28;20814;-59
2022/03/26 03:55:44;;;;;;;21.98;9.38;;;;;;;8.16;75.35;101228.44;5028225;28;20053;-59
2022/03/26 03:58:10;;;;;;;22.55;8.60;;;;;;;8.14;75.57;101216.38;5027437;28;20068;-59
2022/03/26 04:00:37;;;;;;;18.02;9.05;;;;;;;8.10;75.99;101241.31;5030668;28;20067;-59
2022/03/26 04:03:05;;;;;;;17.15;8.82;;;;;;;8.09;76.07;101231.81;5024474;28;20052;-59
2022/03/26 04:05:31;;;;;;;17.45;8.52;;;;;;;8.06;76.42;101221.47;5024141;28;20053;-59
2022/03/26 04:07:58;;;;;;;21.35;8.60;;;;;;;8.07;75.85;101225.78;5022989;28;20064;-58
2022/03/26 04:10:26;;;;;;;18.35;8.77;;;;;;;8.07;76.61;101238.69;5023213;28;20694;-59
2022/03/26 04:12:52;;;;;;;17.38;8.93;;;;;;;8.08;76.53;101224.94;5027291;28;20491;-59
2022/03/26 04:15:19;;;;;;;19.02;9.20;;;;;;;8.10;76.29;101233.56;5024233;28;20045;-60
2022/03/26 04:17:47;;;;;;;18.95;8.65;;;;;;;8.12;76.84;101221.53;5023108;28;20672;-59
2022/03/26 04:20:15;;;;;;;17.00;9.05;;;;;;;8.15;76.57;101237.03;5025191;28;20046;-59
2022/03/26 04:22:42;;;;;;;21.83;9.45;;;;;;;8.15;77.07;101231.88;5024182;28;20654;-59
2022/03/26 04:25:09;;;;;;;16.08;8.85;;;;;;;8.17;77.03;101245.66;5026753;28;20046;-60
2022/03/26 04:27:37;;;;;;;19.30;9.13;;;;;;;8.20;76.39;101240.53;5029102;28;20057;-59
2022/03/26 04:30:04;;;;;;;22.13;9.10;;;;;;;8.19;76.69;101243.97;5028420;28;20057;-59
2022/03/26 04:32:30;;;;;;;19.80;9.07;;;;;;;8.19;76.91;101264.63;5028095;28;20061;-59
2022/03/26 04:34:57;;;;;;;17.90;9.45;;;;;;;8.22;76.84;101249.16;5028626;28;20404;-59
2022/03/26 04:37:25;;;;;;;22.67;10.07;;;;;;;8.23;77.25;101245.72;5024786;28;20049;-59
2022/03/26 04:39:51;;;;;;;23.35;9.63;;;;;;;8.23;77.14;101256.06;5023955;28;20053;-59
2022/03/26 04:42:18;;;;;;;19.95;9.73;;;;;;;8.28;77.11;101244.91;5030001;28;20041;-60
2022/03/26 04:44:44;;;;;;;19.55;9.82;;;;;;;8.28;77.17;101242.31;5023811;28;20415;-59
2022/03/26 04:47:11;;;;;;;25.70;9.95;;;;;;;8.29;76.79;101259.53;5028806;28;20053;-59
2022/03/26 04:49:37;;;;;;;21.13;9.23;;;;;;;8.27;76.82;101269.88;5024714;28;20061;-59
2022/03/26 04:52:04;;;;;;;18.77;9.65;;;;;;;8.31;76.84;101257.84;5023256;28;20053;-59
2022/03/26 04:54:32;;;;;;;21.88;10.10;;;;;;;8.32;76.83;101262.16;5021074;28;20054;-59
2022/03/26 04:56:59;;;;;;;22.27;10.30;;;;;;;8.33;76.58;101271.66;5023396;28;20064;-59
2022/03/26 04:59:25;;;;;;;17.98;9.18;;;;;;;8.34;76.65;101278.59;5022249;28;20411;-59
2022/03/26 05:01:52;;;;;;;16.65;9.60;;;;;;;8.32;77.05;101290.56;5022561;28;20728;-58
2022/03/26 05:04:18;;;;;;;19.48;9.95;;;;;;;8.31;76.94;101294.00;5024073;28;20514;-59
2022/03/26 05:06:45;;;;;;;19.38;9.85;;;;;;;8.28;77.02;101305.16;5027973;28;20048;-60
2022/03/26 05:09:11;;;;;;;14.27;9.20;;;;;;;8.27;77.43;101298.28;5024166;28;20096;-60
2022/03/26 05:11:39;;;;;;;19.63;9.05;;;;;;;8.29;77.54;101312.06;5026803;28;20509;-60
2022/03/26 05:14:06;;;;;;;21.70;9.90;;;;;;;8.29;77.26;101311.22;5022081;28;20486;-59
2022/03/26 05:16:32;;;;;;;20.33;9.82;;;;;;;8.29;77.56;101314.66;5023343;28;20041;-60
2022/03/26 05:18:59;;;;;;;21.80;9.75;;;;;;;8.30;77.13;101318.09;5022154;28;20053;-60
2022/03/26 05:21:26;;;;;;;19.85;10.20;;;;;;;8.32;77.50;101324.16;5025356;28;20053;-60
2022/03/26 05:23:52;;;;;;;21.75;10.32;;;;;;;8.32;77.29;101331.91;5025153;28;20053;-60
2022/03/26 05:26:22;;;;;;;23.17;10.32;;;;;;;8.35;77.76;101313.91;5023619;28;20056;-59
2022/03/26 05:28:50;;;;;;;23.67;9.70;;;;;;;8.35;77.51;101326.81;5024869;28;20045;-60
2022/03/26 05:31:17;;;;;;;19.90;9.73;;;;;;;8.37;77.62;101333.75;5021382;28;20103;-60
2022/03/26 05:33:43;;;;;;;22.20;10.52;;;;;;;8.40;77.51;101327.75;5021582;28;20617;-60
2022/03/26 05:36:10;;;;;;;16.17;9.18;;;;;;;8.43;77.45;101330.34;5022024;28;20056;-60
2022/03/26 05:38:37;;;;;;;18.73;9.52;;;;;;;8.45;77.07;101339.84;5025523;28;20088;-59
2022/03/26 05:41:04;;;;;;;21.65;9.80;;;;;;;8.46;77.33;101330.38;5025639;28;20044;-59
2022/03/26 05:43:31;;;;;;;19.75;10.07;;;;;;;8.46;77.40;101344.16;5022036;28;20407;-60
2022/03/26 05:45:58;;;;;;;18.88;9.65;;;;;;;8.51;77.33;101339.03;5027206;28;20473;-60
2022/03/26 05:48:25;;;;;;;20.58;9.48;;;;;;;8.54;77.41;101339.06;5023491;28;20058;-59
2022/03/26 05:50:52;;;;;;;21.08;8.85;;;;;;;8.52;77.54;101330.44;5023993;28;20474;-59
2022/03/26 05:53:18;;;;;;;20.15;9.25;;;;;;;8.55;77.31;101338.22;5022331;28;20060;-58
2022/03/26 05:55:45;;;;;;;24.38;10.65;;;;;;;8.59;77.35;101331.34;5024540;28;20045;-58
2022/03/26 05:58:12;;;;;;;17.95;9.00;;;;;;;8.61;77.12;101335.69;5031354;28;20057;-59
2022/03/26 06:00:38;;;;;;;24.15;9.40;;;;;;;8.65;76.84;101331.41;5021902;28;20064;-59
2022/03/26 06:03:06;;;;;;;16.13;9.18;;;;;;;8.69;76.69;101344.38;5027529;28;20049;-59
2022/03/26 06:05:33;;;;;;;24.33;9.55;;;;;;;8.73;76.85;101340.09;5023110;28;20049;-59
2022/03/26 06:07:59;;;;;;;24.52;9.35;;;;;;;8.76;76.57;101358.22;5025303;28;20053;-59
2022/03/26 06:10:27;;;;;;;22.52;9.52;;;;;;;8.82;76.77;101366.03;5024259;28;20086;-59
2022/03/26 06:12:53;;;;;;;19.70;9.20;;;;;;;8.91;76.98;101360.09;5021562;28;20498;-59
2022/03/26 06:15:20;;;;;;;19.55;9.57;;;;;;;9.00;76.03;101361.03;5026075;28;20056;-59
2022/03/26 06:17:46;;;;;;;19.30;8.77;;;;;;;9.08;75.88;101367.13;5021402;28;20061;-59
2022/03/26 06:20:14;;;;;;;16.55;8.73;;;;;;;9.15;75.02;101360.28;5024896;28;20091;-60
2022/03/26 06:22:41;;;;;;;16.27;8.32;;;;;;;9.22;74.83;101364.63;5021169;28;20093;-60
2022/03/26 06:25:08;;;;;;;16.58;8.48;;;;;;;9.20;75.11;101374.09;5022807;28;20057;-60
2022/03/26 06:27:34;;;;;;;16.13;8.10;;;;;;;9.26;74.49;101366.38;5024186;28;20700;-59
2022/03/26 06:30:01;;;;;;;25.95;9.85;;;;;;;9.28;74.54;101377.63;5023111;28;20064;-59
2022/03/26 06:32:28;;;;;;;16.27;7.43;;;;;;;9.31;74.14;101387.13;5023384;28;20045;-59
2022/03/26 06:34:54;;;;;;;16.45;7.95;;;;;;;9.31;73.95;101382.81;5026186;28;20060;-59
2022/03/26 06:37:22;;;;;;;16.83;8.35;;;;;;;9.33;74.06;101386.28;5027565;28;20050;-59
2022/03/26 06:39:49;;;;;;;21.38;8.60;;;;;;;9.36;73.85;101395.78;5024689;28;20058;-59
2022/03/26 06:42:15;;;;;;;16.80;7.60;;;;;;;9.38;74.13;101394.97;5020931;28;20057;-59
2022/03/26 06:44:42;;;;;;;18.60;8.23;;;;;;;9.35;73.98;101409.56;5019628;28;20064;-59
2022/03/26 06:47:09;;;;;;;18.95;8.27;;;;;;;9.31;73.59;101400.91;5023824;28;20095;-59
2022/03/26 06:49:35;;;;;;;21.48;7.63;;;;;;;9.31;73.76;101400.91;5023920;28;20041;-59
2022/03/26 06:52:02;;;;;;;19.40;8.88;;;;;;;9.28;73.91;101403.47;5029782;28;20045;-60
2022/03/26 06:54:29;;;;;;;19.17;8.18;;;;;;;9.28;73.73;101413.84;5025729;28;20060;-59
2022/03/26 06:56:56;;;;;;;15.18;7.72;;;;;;;9.31;73.76;101421.63;5022883;28;20061;-59
2022/03/26 06:59:23;;;;;;;16.92;8.00;;;;;;;9.35;74.00;101419.91;5023892;28;20057;-60
2022/03/26 07:01:50;;;;;;;15.43;7.50;;;;;;;9.43;73.46;101419.16;5020590;28;20115;-60
2022/03/26 07:04:16;;;;;;;15.77;8.23;;;;;;;9.57;74.11;101428.72;5020767;28;20057;-59
2022/03/26 07:06:43;;;;;;;20.73;8.57;;;;;;;9.67;73.05;101427.94;5022920;28;20057;-61
2022/03/26 07:09:09;;;;;;;17.88;8.10;;;;;;;9.77;73.60;101440.06;5022932;28;20092;-59
2022/03/26 07:11:37;;;;;;;15.13;8.13;;;;;;;9.89;72.62;101435.00;5021875;28;20642;-59
2022/03/26 07:14:03;;;;;;;21.40;8.75;;;;;;;10.00;72.37;101448.84;5022453;28;20621;-60
2022/03/26 07:16:30;;;;;;;15.55;7.72;;;;;;;10.17;72.54;101450.66;5022804;28;20052;-60
2022/03/26 07:18:56;;;;;;;16.85;7.00;;;;;;;10.34;71.53;101456.81;5024800;28;20069;-60
2022/03/26 07:21:23;;;;;;;14.43;6.97;;;;;;;10.59;71.60;101456.06;5023249;28;20057;-60
2022/03/26 07:23:51;;;;;;;17.98;7.72;;;;;;;10.85;70.42;101452.66;5024012;28;20052;-59
2022/03/26 07:26:18;;;;;;;14.50;7.20;;;;;;;11.06;69.31;101453.56;5020760;28;20054;-59
2022/03/26 07:28:46;;;;;;;19.52;7.95;;;;;;;11.32;69.17;101444.94;5025266;28;20050;-60
2022/03/26 07:31:13;;;;;;;15.43;7.15;;;;;;;11.58;68.37;101452.72;5025500;28;20045;-58
2022/03/26 07:33:39;;;;;;;19.02;6.82;;;;;;;11.85;67.38;101450.09;5023782;28;20490;-58
2022/03/26 07:36:06;;;;;;;13.15;6.88;;;;;;;12.13;65.83;101463.03;5027284;28;20068;-58
2022/03/26 07:38:32;;;;;;;17.30;7.20;;;;;;;12.39;65.24;101461.19;5025960;28;20045;-58
2022/03/26 07:40:59;;;;;;;15.75;6.63;;;;;;;12.64;64.16;101457.63;5024137;28;20057;-58
2022/03/26 07:43:25;;;;;;;15.35;7.03;;;;;;;12.92;62.74;101453.09;5022830;28;20045;-58
2022/03/26 07:45:53;;;;;;;14.65;6.35;;;;;;;13.20;61.73;101459.03;5025894;28;20053;-58
2022/03/26 07:48:20;;;;;;;11.88;6.00;;;;;;;13.49;61.33;101460.53;5023708;28;20056;-58
2022/03/26 07:50:49;;;;;;;13.18;6.55;;;;;;;13.81;59.93;101463.72;5023375;28;20076;-58
2022/03/26 07:53:16;;;;;;;13.30;6.05;;;;;;;14.04;58.23;101466.06;5024020;28;20793;-59
2022/03/26 07:55:43;;;;;;;14.10;5.68;;;;;;;14.23;57.00;101461.53;5023938;28;20049;-59
2022/03/26 07:58:09;;;;;;;9.95;5.80;;;;;;;14.42;56.84;101457.84;5023714;28;20050;-60
2022/03/26 08:00:36;;;;;;;11.10;5.43;;;;;;;14.68;55.87;101469.69;5023332;28;20049;-59
2022/03/26 08:03:04;;;;;;;11.20;5.65;;;;;;;14.91;54.90;101470.22;5023463;28;20065;-59
2022/03/26 08:05:30;;;;;;;21.20;6.18;;;;;;;15.06;54.01;101477.81;5025001;28;20383;-60
2022/03/26 08:07:57;;;;;;;16.80;6.18;;;;;;;15.05;53.08;101470.88;5023011;28;20057;-59
2022/03/26 08:10:23;;;;;;;14.98;6.63;;;;;;;15.09;52.49;101475.19;5023020;28;20053;-59
2022/03/26 08:12:49;;;;;;;18.13;5.63;;;;;;;15.11;52.31;101477.78;5022770;28;20199;-59
2022/03/26 08:15:16;;;;;;;15.70;6.10;;;;;;;15.22;52.13;101477.63;5022624;28;20068;-59
2022/03/26 08:17:42;;;;;;;19.23;5.95;;;;;;;15.30;51.11;101475.75;5023704;28;20057;-58
2022/03/26 08:20:11;;;;;;;16.08;5.75;;;;;;;15.35;50.89;101489.59;5023255;28;20050;-58
2022/03/26 08:22:38;;;;;;;18.88;5.47;;;;;;;15.45;50.83;101491.16;5023238;28;20062;-58
2022/03/26 08:25:06;;;;;;;10.27;4.53;;;;;;;15.48;50.24;101491.13;5022678;28;20395;-58
2022/03/26 08:27:33;;;;;;;10.25;4.63;;;;;;;15.56;49.57;101484.00;5022959;28;20068;-58
2022/03/26 08:29:59;;;;;;;9.27;4.85;;;;;;;15.68;49.79;101493.44;5022839;28;20057;-58
2022/03/26 08:32:26;;;;;;;11.90;4.53;;;;;;;15.77;49.24;101494.16;5024406;28;20045;-58
2022/03/26 08:34:52;;;;;;;26.42;8.35;;;;;;;15.84;48.73;101505.34;5023197;28;20050;-59
2022/03/26 08:37:20;;;;;;;28.38;8.38;;;;;;;15.91;47.81;101501.72;5024477;28;20050;-60
2022/03/26 08:39:47;;;;;;;93.75;19.73;;;;;;;15.93;48.22;101504.31;5023256;28;20100;-59
2022/03/26 08:42:13;;;;;;;15.43;5.03;;;;;;;15.96;47.25;101515.59;5021226;28;20050;-59
2022/03/26 08:44:39;;;;;;;8.90;4.22;;;;;;;15.89;46.96;101516.59;5020196;28;20049;-60
2022/03/26 08:47:06;;;;;;;8.27;4.22;;;;;;;15.76;47.41;101523.78;5018408;28;20544;-59
2022/03/26 08:49:36;;;;;;;11.88;4.13;;;;;;;15.56;46.92;101535.41;5021050;28;20059;-60
2022/03/26 08:52:04;;;;;;;10.27;3.80;;;;;;;15.41;47.34;101528.69;5026178;28;20152;-59
2022/03/26 08:54:31;;;;;;;6.90;4.07;;;;;;;15.24;47.63;101538.53;5024542;28;20053;-59
2022/03/26 08:56:58;;;;;;;8.18;3.85;;;;;;;15.09;47.77;101539.63;5023497;28;20053;-59
2022/03/26 08:59:24;;;;;;;6.68;3.47;;;;;;;15.01;47.96;101544.91;5022530;28;20049;-60
2022/03/26 09:01:51;;;;;;;11.98;4.32;;;;;;;14.91;47.92;101545.06;5021580;28;20045;-60
2022/03/26 09:04:18;;;;;;;11.30;4.28;;;;;;;14.72;48.15;101531.41;5021991;28;20056;-60
2022/03/26 09:06:44;;;;;;;10.00;4.03;;;;;;;14.70;48.42;101533.16;5022752;28;20072;-60
2022/03/26 09:09:11;;;;;;;9.48;3.80;;;;;;;14.61;48.82;101541.13;5022506;28;20549;-60
2022/03/26 09:11:39;;;;;;;8.40;4.30;;;;;;;14.54;48.64;101542.91;5021975;28;20057;-59
2022/03/26 09:14:06;;;;;;;9.00;3.95;;;;;;;14.46;48.52;101543.00;5021880;28;20037;-59
2022/03/26 09:16:32;;;;;;;8.95;4.32;;;;;;;14.40;48.74;101535.22;5022640;28;20055;-59
2022/03/26 09:18:59;;;;;;;9.95;3.28;;;;;;;14.40;48.74;101542.19;5022346;28;20049;-59
2022/03/26 09:21:26;;;;;;;7.90;3.15;;;;;;;14.42;48.28;101540.41;5020040;28;20157;-59
2022/03/26 09:23:52;;;;;;;9.18;4.43;;;;;;;14.48;47.98;101546.44;5022411;28;20041;-60
2022/03/26 09:26:19;;;;;;;7.82;2.80;;;;;;;14.58;46.73;101551.59;5024009;28;20494;-58
2022/03/26 09:28:48;;;;;;;9.60;2.72;;;;;;;14.67;46.79;101556.69;5021951;28;20124;-59
2022/03/26 09:31:14;;;;;;;7.50;3.03;;;;;;;14.73;47.02;101567.91;5021733;28;20089;-60
2022/03/26 09:33:42;;;;;;;5.45;2.58;;;;;;;14.83;46.29;101568.66;5021446;28;20071;-59
2022/03/26 09:36:09;;;;;;;8.05;2.70;;;;;;;14.88;45.21;101566.84;5020899;28;20061;-59
2022/03/26 09:38:36;;;;;;;7.43;3.03;;;;;;;14.91;45.34;101566.81;5020956;28;20701;-59
2022/03/26 09:41:04;;;;;;;10.70;3.35;;;;;;;14.96;45.60;101559.78;5022932;28;20060;-59
2022/03/26 09:43:33;;;;;;;10.30;2.60;;;;;;;14.92;44.70;101568.53;5020414;28;20053;-60
2022/03/26 09:46:01;;;;;;;5.43;1.95;;;;;;;14.89;44.94;101563.38;5020209;28;20091;-60
2022/03/26 09:48:27;;;;;;;7.28;2.47;;;;;;;14.88;45.01;101561.63;5019851;28;20046;-60
2022/03/26 09:50:54;;;;;;;7.90;2.20;;;;;;;14.89;44.95;101568.59;5020118;28;20061;-58
2022/03/26 09:53:22;;;;;;;7.57;2.00;;;;;;;14.86;44.58;101578.19;5019401;28;20091;-61
2022/03/26 09:55:48;;;;;;;7.55;2.30;;;;;;;14.81;45.05;101580.88;5020518;28;20049;-60
2022/03/26 09:58:15;;;;;;;12.60;2.85;;;;;;;14.70;45.53;101582.75;5021978;28;20052;-60
2022/03/26 10:00:41;;;;;;;6.10;2.30;;;;;;;14.49;45.43;101589.06;5020698;28;20058;-60
2022/03/26 10:03:10;;;;;;;7.50;2.35;;;;;;;14.35;45.20;101583.09;5021454;28;20056;-60
2022/03/26 10:05:36;;;;;;;7.53;2.00;;;;;;;14.24;45.45;101592.78;5022651;28;20037;-60
2022/03/26 10:08:22;;;;;;;4.53;1.75;;;;;;;14.18;44.76;101593.69;5021927;28;21598;-60
2022/03/26 10:10:50;;;;;;;7.00;3.38;;;;;;;14.15;44.76;101591.13;5019769;28;20049;-60
2022/03/26 10:13:36;;;;;;;4.80;1.60;;;;;;;14.17;44.49;101591.97;5020530;28;22806;-59
2022/03/26 10:16:05;;;;;;;8.63;1.67;;;;;;;14.21;40.74;101614.53;5021123;28;20058;-60
2022/03/26 10:18:38;;;;;;;17.88;2.08;;;;;;;14.13;35.99;101611.13;5021128;28;20057;-59
2022/03/26 10:21:07;;;;;;;12.15;1.73;;;;;;;13.97;34.93;101609.50;5020932;28;20057;-59
2022/03/26 10:23:34;;;;;;;4.70;1.20;;;;;;;13.84;34.12;101634.81;5025471;28;20422;-60
2022/03/26 10:26:05;;;;;;;6.82;1.20;;;;;;;13.69;32.69;101635.78;5022996;28;20053;-60
2022/03/26 10:28:32;;;;;;;4.50;1.10;;;;;;;13.50;31.13;101644.56;5024511;28;20437;-60
2022/03/26 10:34:10;;;;;;;5.68;0.85;;;;;;;13.27;29.71;101653.38;5021580;28;20123;-60
2022/03/26 10:36:40;;;;;;;5.63;0.90;;;;;;;13.27;30.55;101652.53;5021480;28;20071;-60
2022/03/26 10:39:07;;;;;;;12.10;1.40;;;;;;;13.30;30.40;101656.84;5021040;28;20056;-60
2022/03/26 10:41:35;;;;;;;6.43;0.80;;;;;;;13.42;29.82;101667.19;5025479;28;20490;-60
2022/03/26 10:44:10;;;;;;;7.50;0.80;;;;;;;13.52;29.13;101664.53;5021174;28;20053;-60
2022/03/26 10:46:44;;;;;;;6.28;1.17;;;;;;;13.62;27.97;101672.31;5019684;28;20053;-60
2022/03/26 10:49:13;;;;;;;13.07;1.55;;;;;;;13.59;27.94;101675.81;5019721;28;20052;-59
2022/03/26 10:51:42;;;;;;;4.03;0.80;;;;;;;13.61;27.91;101679.28;5019738;28;20053;-60
2022/03/26 10:54:10;;;;;;;9.10;0.90;;;;;;;13.69;27.95;101682.69;5020931;28;20057;-60
2022/03/26 10:56:38;;;;;;;9.35;2.60;;;;;;;13.77;27.50;101670.47;5020825;28;20056;-59
2022/03/26 10:59:04;;;;;;;7.20;1.60;;;;;;;13.78;27.40;101667.00;5024112;28;20473;-59
2022/03/26 11:01:31;;;;;;;11.52;2.33;;;;;;;13.81;27.28;101682.59;5028001;28;20050;-60
2022/03/26 11:03:57;;;;;;;5.00;2.90;;;;;;;13.86;27.37;101675.63;5027901;28;20041;-60
2022/03/26 11:06:27;;;;;;;3.92;1.05;;;;;;;13.94;27.72;101683.38;5024688;28;20481;-60
2022/03/26 11:08:59;;;;;;;80.13;6.75;;;;;;;14.10;27.73;101689.38;5027407;28;20076;-46
2022/03/26 11:11:27;;;;;;;18.10;2.78;;;;;;;14.14;27.25;101686.72;5025488;28;20053;-46
2022/03/26 11:13:58;;;;;;;4.80;2.08;;;;;;;14.03;27.36;101690.28;5027687;28;20705;-51
2022/03/26 11:16:37;;;;;;;13.38;2.63;;;;;;;13.89;26.18;101675.59;5028527;28;20517;-48
2022/03/26 11:19:15;;;;;;;12.73;1.50;;;;;;;13.85;27.72;101710.38;5029246;28;20057;-46
2022/03/26 11:22:16;;;;;;;7.45;1.13;;;;;;;13.72;27.22;101702.66;5026549;28;20806;-50
2022/03/26 11:25:14;;;;;;;60.83;3.80;;;;;;;13.57;26.75;101698.41;5024814;28;20073;-46